La Salle, Minnesota
Current Conditions -  °F | °C
As of 11:55 AM on Monday 24 Nov 2014 (Local Time) from KJYG Reporting Station
Light Snow Light Snow  
Wind Chill:   Ceiling: 2700
Heat Index: 18°   Visibility: 10mi
Dew Point: 10°   Wind: 24mph
Humidity: 73%   Direction: 300°WNW
Pressure: 29.59"   Gusts: 43mph
Location:  44.07°N, 94.57°W
Report Text: KJYG 241755Z AUTO 30021G37KT 10SM -SN SCT018 BKN027 OVC032 M08/M12 A2959 RMK AO2
Loading
Personal Weather Stations






























Interactive Weather Map New forecast layout! Learn more

10-Day Weather Forecast

Advertisements
Track Severe Weather on mobile